createdAt,value
2023-05-05T00:02:41.532Z,10.90
2023-05-05T00:05:27.142Z,12.25
2023-05-05T00:08:13.121Z,12.73
2023-05-05T00:10:58.980Z,12.73
2023-05-05T00:13:44.639Z,10.32
2023-05-05T00:16:30.849Z,14.63
2023-05-05T00:19:17.065Z,11.30
2023-05-05T00:22:02.454Z,13.63
2023-05-05T00:24:48.332Z,13.80
2023-05-05T00:27:34.006Z,12.45
2023-05-05T00:30:21.113Z,11.10
2023-05-05T00:33:06.974Z,12.93
2023-05-05T00:35:52.686Z,12.55
2023-05-05T00:38:39.030Z,10.00
2023-05-05T00:41:24.614Z,11.32
2023-05-05T00:44:10.363Z,10.88
2023-05-05T00:46:56.619Z,12.80
2023-05-05T00:49:42.687Z,12.00
2023-05-05T00:52:29.189Z,10.98
2023-05-05T00:55:15.089Z,12.52
2023-05-05T00:58:03.171Z,14.10
2023-05-05T01:00:49.240Z,10.88
2023-05-05T01:03:38.567Z,11.27
2023-05-05T01:06:33.690Z,12.88
2023-05-05T01:09:31.211Z,10.43
2023-05-05T01:12:57.013Z,11.77
2023-05-05T01:16:15.763Z,13.52
2023-05-05T01:19:07.955Z,13.48
2023-05-05T01:22:00.915Z,11.05
2023-05-05T01:25:22.383Z,13.93
2023-05-05T01:29:13.990Z,12.18
2023-05-05T01:32:08.205Z,11.93
2023-05-05T01:35:03.010Z,14.13
2023-05-05T01:38:02.787Z,12.48
2023-05-05T01:41:03.205Z,12.98
2023-05-05T01:43:51.480Z,12.70
2023-05-05T01:46:37.583Z,11.18
2023-05-05T01:49:23.731Z,12.60
2023-05-05T01:52:10.443Z,13.00
2023-05-05T01:54:58.912Z,12.65
2023-05-05T01:57:47.172Z,11.32
2023-05-05T02:00:34.289Z,14.10
2023-05-05T02:03:23.388Z,14.32
2023-05-05T02:06:10.282Z,12.90
2023-05-05T02:08:58.354Z,12.40
2023-05-05T02:11:43.961Z,12.30
2023-05-05T02:14:31.304Z,11.38
2023-05-05T02:17:18.131Z,13.10
2023-05-05T02:20:05.117Z,13.00
2023-05-05T02:22:51.709Z,12.30
2023-05-05T02:25:49.653Z,12.55
2023-05-05T02:28:56.692Z,10.35
2023-05-05T02:31:48.240Z,11.45
2023-05-05T02:34:43.168Z,11.30
2023-05-05T02:37:34.949Z,12.20
2023-05-05T02:40:26.584Z,15.60
2023-05-05T02:43:18.436Z,12.50
2023-05-05T02:46:05.638Z,11.10
2023-05-05T02:48:52.231Z,11.20
2023-05-05T02:51:37.895Z,11.98
2023-05-05T02:54:28.914Z,13.63
2023-05-05T02:57:18.774Z,11.32
2023-05-05T03:00:24.321Z,14.18
2023-05-05T03:03:29.670Z,13.10
2023-05-05T03:06:20.492Z,14.25
2023-05-05T03:09:14.214Z,14.43
2023-05-05T03:12:19.377Z,12.85
2023-05-05T03:15:14.766Z,12.68
2023-05-05T03:18:02.576Z,12.93
2023-05-05T03:20:49.833Z,12.32
2023-05-05T03:23:37.622Z,13.32
2023-05-05T03:26:28.404Z,13.88
2023-05-05T03:29:15.735Z,12.90
2023-05-05T03:32:01.655Z,14.02
2023-05-05T03:34:48.408Z,12.07
2023-05-05T03:37:34.709Z,12.43
2023-05-05T03:40:23.515Z,14.82
2023-05-05T03:43:16.623Z,13.25
2023-05-05T03:46:02.320Z,12.38
2023-05-05T03:48:48.765Z,13.95
2023-05-05T03:51:35.130Z,12.23
2023-05-05T03:54:20.815Z,12.30
2023-05-05T03:57:07.088Z,11.93
2023-05-05T03:59:53.996Z,15.20
2023-05-05T04:02:39.464Z,14.85
2023-05-05T04:05:26.414Z,19.38
2023-05-05T04:08:12.712Z,12.70
2023-05-05T04:10:58.758Z,14.25
2023-05-05T04:13:44.873Z,13.20
2023-05-05T04:16:31.069Z,12.73
2023-05-05T04:19:19.137Z,14.27
2023-05-05T04:22:08.156Z,15.50
2023-05-05T04:24:54.369Z,15.50
2023-05-05T04:27:41.181Z,15.50
2023-05-05T04:30:27.641Z,14.13
2023-05-05T04:33:14.283Z,13.15
2023-05-05T04:35:59.898Z,16.20
2023-05-05T04:38:46.648Z,14.75
2023-05-05T04:41:32.916Z,14.70
2023-05-05T04:44:18.886Z,13.80
2023-05-05T04:47:04.963Z,13.07
2023-05-05T04:49:50.988Z,14.50
2023-05-05T04:52:38.079Z,14.57
2023-05-05T04:55:24.616Z,13.25
2023-05-05T04:58:10.525Z,14.00
2023-05-05T05:00:56.381Z,14.27
2023-05-05T05:03:42.366Z,12.40
2023-05-05T05:06:29.366Z,13.80
2023-05-05T05:09:15.814Z,21.08
2023-05-05T05:12:05.812Z,15.25
2023-05-05T05:14:51.938Z,14.85
2023-05-05T05:17:37.830Z,13.77
2023-05-05T05:20:24.506Z,13.35
2023-05-05T05:23:10.511Z,16.88
2023-05-05T05:26:01.173Z,15.10
2023-05-05T05:28:49.758Z,16.38
2023-05-05T05:31:37.015Z,16.83
2023-05-05T05:34:23.933Z,13.77
2023-05-05T05:37:10.051Z,20.75
2023-05-05T05:39:56.972Z,13.13
2023-05-05T05:42:44.545Z,14.25
2023-05-05T05:45:31.184Z,13.25
2023-05-05T05:48:16.900Z,16.73
2023-05-05T05:51:02.962Z,14.52
2023-05-05T05:53:48.468Z,14.23
2023-05-05T05:56:35.138Z,14.90
2023-05-05T05:59:21.213Z,14.27
2023-05-05T06:02:07.981Z,13.15
2023-05-05T06:04:54.112Z,14.07
2023-05-05T06:07:40.025Z,18.17
2023-05-05T06:10:28.228Z,14.68
2023-05-05T06:13:27.862Z,13.68
2023-05-05T06:16:13.330Z,19.27
2023-05-05T06:19:01.699Z,15.97
2023-05-05T06:21:47.390Z,15.00
2023-05-05T06:24:33.446Z,15.75
2023-05-05T06:27:20.629Z,14.18
2023-05-05T06:30:08.329Z,10.23
2023-05-05T06:32:54.413Z,12.38
2023-05-05T06:35:40.175Z,13.55
2023-05-05T06:38:26.005Z,11.57
2023-05-05T06:41:11.602Z,11.70
2023-05-05T06:43:57.476Z,9.88
2023-05-05T06:46:44.184Z,11.98
2023-05-05T06:49:30.324Z,10.60
2023-05-05T06:52:19.783Z,9.38
2023-05-05T06:55:06.437Z,13.23
2023-05-05T06:58:04.184Z,10.82
2023-05-05T07:00:50.455Z,10.45
2023-05-05T07:03:40.118Z,12.77
2023-05-05T07:06:26.211Z,13.65
2023-05-05T07:09:17.034Z,11.00
2023-05-05T07:12:04.018Z,11.20
2023-05-05T07:14:49.758Z,12.30
2023-05-05T07:17:35.280Z,8.15
2023-05-05T07:20:21.510Z,9.30
2023-05-05T07:23:07.690Z,9.57
2023-05-05T07:25:55.066Z,10.57
2023-05-05T07:28:41.700Z,13.40
2023-05-05T07:31:27.372Z,12.98
2023-05-05T07:34:13.466Z,10.48
2023-05-05T07:36:58.856Z,11.93
2023-05-05T07:39:44.352Z,11.68
2023-05-05T07:42:30.071Z,11.38
2023-05-05T07:45:16.406Z,10.10
2023-05-05T07:48:02.661Z,12.70
2023-05-05T07:50:48.419Z,14.13
2023-05-05T07:53:34.184Z,7.88
2023-05-05T07:56:21.662Z,10.20
2023-05-05T07:59:08.550Z,6.97
2023-05-05T08:01:55.050Z,6.90
2023-05-05T08:04:43.413Z,7.65
2023-05-05T08:07:29.210Z,11.40
2023-05-05T08:10:16.396Z,7.05
2023-05-05T08:13:03.225Z,5.45
2023-05-05T08:15:55.743Z,4.25
2023-05-05T08:18:41.608Z,5.90
2023-05-05T08:21:27.971Z,5.10
2023-05-05T08:24:14.157Z,3.03
2023-05-05T08:26:59.789Z,6.30
2023-05-05T08:29:46.332Z,3.95
2023-05-05T08:32:32.417Z,4.05
2023-05-05T08:35:18.429Z,5.32
2023-05-05T08:38:04.483Z,2.45
2023-05-05T08:40:53.399Z,7.72
2023-05-05T08:43:39.769Z,4.45
2023-05-05T08:46:28.169Z,7.25
2023-05-05T08:49:16.557Z,5.97
2023-05-05T08:52:05.709Z,21.30
2023-05-05T08:57:56.648Z,11.10
2023-05-05T09:00:45.412Z,5.47
2023-05-05T09:03:34.157Z,5.20
2023-05-05T09:06:22.419Z,9.13
2023-05-05T09:09:09.505Z,4.97
2023-05-05T09:11:58.566Z,5.80
2023-05-05T09:14:46.291Z,5.22
2023-05-05T09:17:31.999Z,5.22
2023-05-05T09:20:18.417Z,4.38
2023-05-05T09:23:16.269Z,2.95
2023-05-05T09:26:08.971Z,4.25
2023-05-05T09:28:55.252Z,5.43
2023-05-05T09:31:43.467Z,5.45
2023-05-05T09:34:29.416Z,4.95
2023-05-05T09:37:31.350Z,3.90
2023-05-05T09:40:24.310Z,4.63
2023-05-05T09:43:10.317Z,5.32
2023-05-05T09:46:07.924Z,5.95
2023-05-05T09:48:54.746Z,4.57
2023-05-05T09:51:40.968Z,2.42
2023-05-05T09:54:30.010Z,3.13
2023-05-05T09:57:33.808Z,3.80
2023-05-05T10:00:21.826Z,6.50
2023-05-05T10:03:08.636Z,5.45
2023-05-05T10:06:01.241Z,6.32
2023-05-05T10:09:02.248Z,3.10
2023-05-05T10:11:48.457Z,2.85
2023-05-05T10:14:39.132Z,3.40
2023-05-05T10:17:27.390Z,1.90
2023-05-05T10:20:16.061Z,3.10
2023-05-05T10:23:17.427Z,4.13
2023-05-05T10:26:08.184Z,1.30
2023-05-05T10:29:04.468Z,3.25
2023-05-05T10:31:54.932Z,2.30
2023-05-05T10:34:55.902Z,1.42
2023-05-05T10:37:43.129Z,1.17
2023-05-05T10:40:30.767Z,3.15
2023-05-05T10:43:17.945Z,1.27
2023-05-05T10:46:05.078Z,3.38
2023-05-05T10:48:58.707Z,2.65
2023-05-05T10:52:23.407Z,1.27
2023-05-05T10:55:38.998Z,5.70
2023-05-05T10:58:55.300Z,1.25
2023-05-05T11:01:45.218Z,4.20
2023-05-05T11:04:31.796Z,2.58
2023-05-05T11:07:24.744Z,2.15
2023-05-05T11:10:13.461Z,2.10
2023-05-05T11:15:46.176Z,2.45
2023-05-05T11:18:40.178Z,2.10
2023-05-05T11:21:28.309Z,2.78
2023-05-05T11:24:32.343Z,2.50
2023-05-05T11:27:18.833Z,1.85
2023-05-05T11:30:08.945Z,2.58
2023-05-05T11:33:29.741Z,3.13
2023-05-05T11:36:20.544Z,3.50
2023-05-05T11:39:11.838Z,3.58
2023-05-05T11:42:23.402Z,2.40
2023-05-05T11:45:25.127Z,2.50
2023-05-05T11:48:27.398Z,2.97
2023-05-05T11:51:15.023Z,2.42
2023-05-05T11:54:01.120Z,4.05
2023-05-05T11:56:55.781Z,3.58
2023-05-05T12:00:06.357Z,2.80
2023-05-05T12:03:02.946Z,2.75
2023-05-05T12:05:49.229Z,3.70
2023-05-05T12:08:45.676Z,3.88
2023-05-05T12:11:37.478Z,1.70
2023-05-05T12:14:31.099Z,1.65
2023-05-05T12:17:20.804Z,3.08
2023-05-05T12:20:07.944Z,5.90
2023-05-05T12:23:03.169Z,2.90
2023-05-05T12:25:49.693Z,2.13
2023-05-05T12:28:48.728Z,3.38
2023-05-05T12:31:43.285Z,7.38
2023-05-05T12:34:31.107Z,1.90
2023-05-05T12:37:19.285Z,2.30
2023-05-05T12:40:06.727Z,2.40
2023-05-05T12:42:53.716Z,1.63
2023-05-05T12:45:41.009Z,2.10
2023-05-05T12:48:26.838Z,2.80
2023-05-05T12:51:23.650Z,2.10
2023-05-05T12:54:11.459Z,4.85
2023-05-05T12:56:57.870Z,2.08
2023-05-05T12:59:44.022Z,3.53
2023-05-05T13:02:35.876Z,3.70
2023-05-05T13:05:41.061Z,9.40
2023-05-05T13:08:45.623Z,3.15
2023-05-05T13:11:35.816Z,3.67
2023-05-05T13:14:22.199Z,4.97
2023-05-05T13:17:08.034Z,5.95
2023-05-05T13:19:53.655Z,3.90
2023-05-05T13:22:39.299Z,3.33
2023-05-05T13:25:25.249Z,3.83
2023-05-05T13:28:11.310Z,3.78
2023-05-05T13:30:58.746Z,2.47
2023-05-05T13:33:45.161Z,1.67
2023-05-05T13:36:31.158Z,4.03
2023-05-05T13:39:16.771Z,2.47
2023-05-05T13:42:02.567Z,4.10
2023-05-05T13:44:48.337Z,7.32
2023-05-05T13:47:34.135Z,4.88
2023-05-05T13:50:19.993Z,8.02
2023-05-05T13:53:06.064Z,4.03
2023-05-05T13:55:54.656Z,2.58
2023-05-05T13:58:41.588Z,3.20
2023-05-05T14:01:27.682Z,3.13
2023-05-05T14:04:13.686Z,12.52
2023-05-05T14:07:00.086Z,6.40
2023-05-05T14:09:45.789Z,2.55
2023-05-05T14:12:32.618Z,4.13
2023-05-05T14:15:18.661Z,4.63
2023-05-05T14:18:13.172Z,4.07
2023-05-05T14:21:00.547Z,3.60
2023-05-05T14:23:46.508Z,3.22
2023-05-05T14:26:33.777Z,3.88
2023-05-05T14:29:24.005Z,5.18
2023-05-05T14:32:10.910Z,3.30
2023-05-05T14:35:00.901Z,4.07
2023-05-05T14:37:47.720Z,4.07
2023-05-05T14:40:36.466Z,4.38
2023-05-05T14:43:35.141Z,3.72
2023-05-05T14:46:26.395Z,3.13
2023-05-05T14:49:30.645Z,3.80
2023-05-05T14:52:27.763Z,5.70
2023-05-05T14:58:57.020Z,5.80
2023-05-05T15:01:51.134Z,3.00
2023-05-05T15:04:36.945Z,2.25
2023-05-05T15:07:29.900Z,4.32
2023-05-05T15:10:19.728Z,2.28
2023-05-05T15:13:17.468Z,4.38
2023-05-05T15:16:03.941Z,2.72
2023-05-05T15:19:17.328Z,3.72
2023-05-05T15:22:24.124Z,3.60
2023-05-05T15:25:13.492Z,2.40
2023-05-05T15:28:01.024Z,2.25
2023-05-05T15:30:47.570Z,5.53
2023-05-05T15:33:33.844Z,6.00
2023-05-05T15:36:23.114Z,4.57
2023-05-05T15:39:09.464Z,4.53
2023-05-05T15:41:54.951Z,3.75
2023-05-05T15:44:40.641Z,4.65
2023-05-05T15:47:26.881Z,3.50
2023-05-05T15:50:13.241Z,6.00
2023-05-05T15:52:59.740Z,5.50
2023-05-05T15:56:11.770Z,11.55
2023-05-05T15:58:58.133Z,4.20
2023-05-05T16:01:44.405Z,3.25
2023-05-05T16:04:31.996Z,3.05
2023-05-05T16:07:18.521Z,4.65
2023-05-05T16:10:04.535Z,3.10
2023-05-05T16:12:51.918Z,7.00
2023-05-05T16:15:40.774Z,3.65
2023-05-05T16:18:27.292Z,4.07
2023-05-05T16:21:13.054Z,8.35
2023-05-05T16:23:58.946Z,8.30
2023-05-05T16:26:45.091Z,6.25
2023-05-05T16:30:10.553Z,5.82
2023-05-05T16:32:56.685Z,4.72
2023-05-05T16:35:46.604Z,7.22
2023-05-05T16:38:32.489Z,6.07
2023-05-05T16:41:17.966Z,7.80
2023-05-05T16:44:04.716Z,5.82
2023-05-05T16:46:50.574Z,8.15
2023-05-05T16:49:36.804Z,4.43
2023-05-05T16:52:22.868Z,4.07
2023-05-05T16:55:10.257Z,4.95
2023-05-05T16:57:56.034Z,3.53
2023-05-05T17:00:42.386Z,3.90
2023-05-05T17:03:28.562Z,3.83
2023-05-05T17:06:14.734Z,5.43
2023-05-05T17:09:01.099Z,5.20
2023-05-05T17:11:47.082Z,6.07
2023-05-05T17:14:33.946Z,3.28
2023-05-05T17:17:19.734Z,8.35
2023-05-05T17:20:06.706Z,6.43
2023-05-05T17:22:52.322Z,4.95
2023-05-05T17:25:38.087Z,7.32
2023-05-05T17:28:24.270Z,4.32
2023-05-05T17:31:11.052Z,2.53
2023-05-05T17:33:57.474Z,5.40
2023-05-05T17:36:43.303Z,6.13
2023-05-05T17:39:30.769Z,3.30
2023-05-05T17:42:22.983Z,6.38
2023-05-05T17:45:12.108Z,2.55
2023-05-05T17:48:00.018Z,3.90
2023-05-05T17:50:47.171Z,3.58
2023-05-05T17:53:33.021Z,4.28
2023-05-05T17:56:18.502Z,2.83
2023-05-05T17:59:07.889Z,2.42
2023-05-05T18:01:54.304Z,1.60
2023-05-05T18:04:40.387Z,3.20
2023-05-05T18:07:29.031Z,1.90
2023-05-05T18:10:16.733Z,4.25
2023-05-05T18:13:03.534Z,7.53
2023-05-05T18:15:49.639Z,4.13
2023-05-05T18:18:38.534Z,2.47
2023-05-05T18:21:24.744Z,2.58
2023-05-05T18:24:19.275Z,3.50
2023-05-05T18:27:09.653Z,1.90
2023-05-05T18:29:55.267Z,3.70
2023-05-05T18:32:41.615Z,4.50
2023-05-05T18:35:29.718Z,3.38
2023-05-05T18:38:15.816Z,4.60
2023-05-05T18:41:02.089Z,4.00
2023-05-05T18:43:48.313Z,4.25
2023-05-05T18:46:35.139Z,3.78
2023-05-05T18:49:23.691Z,4.10
2023-05-05T18:52:09.984Z,2.33
2023-05-05T18:54:58.512Z,1.58
2023-05-05T18:57:55.435Z,2.65
2023-05-05T19:00:44.879Z,5.05
2023-05-05T19:03:30.978Z,2.80
2023-05-05T19:11:46.727Z,2.70
2023-05-05T19:14:45.412Z,2.22
2023-05-05T19:17:33.400Z,2.38
2023-05-05T19:20:45.305Z,1.95
2023-05-05T19:23:36.150Z,4.25
2023-05-05T19:26:35.006Z,21.20
2023-05-05T19:29:32.630Z,13.35
2023-05-05T19:32:26.991Z,10.93
2023-05-05T19:35:13.831Z,3.97
2023-05-05T19:38:11.686Z,3.15
2023-05-05T19:40:57.758Z,4.25
2023-05-05T19:44:22.076Z,2.45
2023-05-05T19:47:09.023Z,1.95
2023-05-05T19:49:56.277Z,2.47
2023-05-05T19:52:42.392Z,2.10
2023-05-05T19:55:28.642Z,2.10
2023-05-05T19:58:16.244Z,1.52
2023-05-05T20:01:02.277Z,1.95
2023-05-05T20:03:48.586Z,1.13
2023-05-05T20:06:35.773Z,1.48
2023-05-05T20:09:22.676Z,1.55
2023-05-05T20:12:08.450Z,1.58
2023-05-05T20:14:55.129Z,3.47
2023-05-05T20:17:41.004Z,1.65
2023-05-05T20:20:27.802Z,2.80
2023-05-05T20:23:13.912Z,2.53
2023-05-05T20:26:00.818Z,3.15
2023-05-05T20:28:47.137Z,1.50
2023-05-05T20:32:20.811Z,2.20
2023-05-05T20:35:07.683Z,3.58
2023-05-05T20:37:53.801Z,2.67
2023-05-05T20:40:42.051Z,4.25
2023-05-05T20:43:28.407Z,4.05
2023-05-05T20:46:14.965Z,1.77
2023-05-05T20:49:01.281Z,3.05
2023-05-05T20:51:47.363Z,2.13
2023-05-05T20:54:36.641Z,1.63
2023-05-05T20:57:22.652Z,4.05
2023-05-05T21:00:09.661Z,4.15
2023-05-05T21:02:57.024Z,3.25
2023-05-05T21:05:44.798Z,3.40
2023-05-05T21:08:55.102Z,4.85
2023-05-05T21:11:40.895Z,3.22
2023-05-05T21:14:26.959Z,5.13
2023-05-05T21:17:13.182Z,3.42
2023-05-05T21:19:59.531Z,3.05
2023-05-05T21:22:45.947Z,2.83
2023-05-05T21:25:32.356Z,4.13
2023-05-05T21:28:18.462Z,2.22
2023-05-05T21:31:21.050Z,2.97
2023-05-05T21:34:07.867Z,2.15
2023-05-05T21:36:54.229Z,2.42
2023-05-05T21:39:40.737Z,3.13
2023-05-05T21:42:27.023Z,4.05
2023-05-05T21:45:13.471Z,2.60
2023-05-05T21:53:17.690Z,5.03
2023-05-05T21:56:13.826Z,3.83
2023-05-05T21:59:09.419Z,6.68
2023-05-05T22:02:05.225Z,2.92
2023-05-05T22:04:52.184Z,3.65
2023-05-05T22:08:16.661Z,2.20
2023-05-05T22:59:48.898Z,3.55
2023-05-05T23:03:07.564Z,2.60
2023-05-05T23:11:07.913Z,4.00
2023-05-05T23:14:04.237Z,4.15
2023-05-05T23:17:03.813Z,3.38
2023-05-05T23:20:00.036Z,5.10
2023-05-05T23:31:49.126Z,4.68
2023-05-05T23:35:11.227Z,2.92
2023-05-05T23:39:04.175Z,3.30
2023-05-05T23:42:13.693Z,5.30
2023-05-05T23:45:34.636Z,4.57
2023-05-05T23:48:21.659Z,2.85
2023-05-05T23:51:07.738Z,3.83
2023-05-05T23:56:23.665Z,3.38
2023-05-05T23:58:18.470Z,2.28
